createdAt,value
2018-06-27T00:00:09.212Z,75.31
2018-06-27T00:03:16.197Z,75.39
2018-06-27T00:06:22.328Z,74.97
2018-06-27T00:09:27.217Z,75.41
2018-06-27T00:12:32.638Z,74.99
2018-06-27T00:15:39.005Z,74.79
2018-06-27T00:18:45.882Z,75.74
2018-06-27T00:21:50.719Z,76.00
2018-06-27T00:24:55.580Z,75.16
2018-06-27T00:28:01.488Z,75.64
2018-06-27T00:31:07.497Z,75.08
2018-06-27T00:34:12.614Z,76.08
2018-06-27T00:37:18.297Z,76.27
2018-06-27T00:40:24.741Z,75.29
2018-06-27T00:43:30.254Z,76.22
2018-06-27T00:46:37.465Z,75.64
2018-06-27T00:49:43.166Z,76.07
2018-06-27T00:52:48.601Z,76.41
2018-06-27T00:55:54.172Z,76.08
2018-06-27T00:59:25.341Z,76.36
2018-06-27T01:03:10.671Z,75.72
2018-06-27T01:06:25.964Z,76.35
2018-06-27T01:09:31.693Z,76.15
2018-06-27T01:12:37.345Z,76.46
2018-06-27T01:15:43.189Z,76.25
2018-06-27T01:18:48.933Z,76.37
2018-06-27T01:21:55.554Z,76.41
2018-06-27T01:25:00.821Z,76.62
2018-06-27T01:28:06.564Z,76.01
2018-06-27T01:31:12.173Z,76.29
2018-06-27T01:34:17.860Z,76.88
2018-06-27T01:37:22.961Z,76.87
2018-06-27T01:40:29.272Z,76.80
2018-06-27T01:43:35.165Z,76.62
2018-06-27T01:46:40.259Z,76.88
2018-06-27T01:49:46.151Z,76.61
2018-06-27T01:52:52.605Z,76.05
2018-06-27T01:55:57.716Z,76.65
2018-06-27T01:59:02.780Z,76.51
2018-06-27T02:02:08.176Z,76.88
2018-06-27T02:05:14.534Z,76.92
2018-06-27T02:08:20.040Z,76.60
2018-06-27T02:11:24.839Z,76.84
2018-06-27T02:14:30.044Z,77.32
2018-06-27T02:17:35.499Z,76.31
2018-06-27T02:20:41.225Z,76.57
2018-06-27T02:23:46.422Z,76.72
2018-06-27T02:26:51.813Z,76.79
2018-06-27T02:29:57.705Z,76.53
2018-06-27T02:33:04.137Z,76.80
2018-06-27T02:36:11.091Z,76.94
2018-06-27T02:39:17.126Z,76.49
2018-06-27T02:42:22.538Z,76.49
2018-06-27T02:45:27.609Z,77.53
2018-06-27T02:48:34.321Z,76.83
2018-06-27T02:51:40.426Z,77.13
2018-06-27T02:54:45.833Z,76.51
2018-06-27T02:57:52.056Z,76.50
2018-06-27T03:00:58.407Z,76.56
2018-06-27T03:04:04.706Z,76.39
2018-06-27T03:07:10.137Z,76.56
2018-06-27T03:10:17.104Z,76.32
2018-06-27T03:13:22.719Z,76.39
2018-06-27T03:16:27.975Z,76.97
2018-06-27T03:19:33.699Z,76.34
2018-06-27T03:22:38.684Z,76.99
2018-06-27T03:25:44.061Z,76.11
2018-06-27T03:28:51.501Z,76.77
2018-06-27T03:31:57.155Z,75.99
2018-06-27T03:35:03.484Z,77.36
2018-06-27T03:38:09.304Z,76.98
2018-06-27T03:41:15.049Z,76.72
2018-06-27T03:44:20.126Z,76.93
2018-06-27T03:47:26.320Z,76.69
2018-06-27T03:50:31.274Z,76.63
2018-06-27T03:53:38.701Z,77.17
2018-06-27T03:56:44.671Z,77.06
2018-06-27T03:59:50.759Z,76.31
2018-06-27T04:02:55.849Z,76.85
2018-06-27T04:06:01.833Z,76.86
2018-06-27T04:09:09.739Z,76.34
2018-06-27T04:12:14.800Z,76.61
2018-06-27T04:15:20.656Z,76.42
2018-06-27T04:18:26.705Z,76.70
2018-06-27T04:21:31.494Z,76.92
2018-06-27T04:24:37.216Z,76.05
2018-06-27T04:27:42.269Z,76.45
2018-06-27T04:30:47.423Z,75.76
2018-06-27T04:33:52.516Z,75.64
2018-06-27T04:36:58.123Z,75.53
2018-06-27T04:40:04.563Z,75.71
2018-06-27T04:43:10.304Z,75.96
2018-06-27T04:46:16.556Z,76.25
2018-06-27T04:49:21.631Z,75.47
2018-06-27T04:52:27.492Z,76.11
2018-06-27T04:55:33.598Z,76.67
2018-06-27T04:58:39.196Z,75.65
2018-06-27T05:01:45.081Z,76.45
2018-06-27T05:04:51.353Z,75.45
2018-06-27T05:07:57.204Z,76.42
2018-06-27T05:11:03.570Z,75.64
2018-06-27T05:14:09.400Z,76.08
2018-06-27T05:17:15.191Z,75.91
2018-06-27T05:20:21.062Z,75.59
2018-06-27T05:23:26.174Z,75.64
2018-06-27T05:26:31.268Z,75.83
2018-06-27T05:29:36.296Z,75.86
2018-06-27T05:32:41.606Z,76.24
2018-06-27T05:35:46.983Z,75.75
2018-06-27T05:38:52.825Z,75.77
2018-06-27T05:41:57.912Z,75.34
2018-06-27T05:45:03.025Z,75.17
2018-06-27T05:48:07.861Z,75.98
2018-06-27T05:51:12.680Z,76.32
2018-06-27T05:54:18.400Z,75.33
2018-06-27T05:57:24.660Z,75.49
2018-06-27T06:00:30.572Z,75.67
2018-06-27T06:03:36.257Z,76.09
2018-06-27T06:06:41.650Z,76.74
2018-06-27T06:09:47.356Z,75.38
2018-06-27T06:12:52.438Z,75.51
2018-06-27T06:15:57.664Z,75.39
2018-06-27T06:19:02.744Z,76.44
2018-06-27T06:22:08.293Z,75.86
2018-06-27T06:25:14.380Z,75.89
2018-06-27T06:28:20.020Z,76.30
2018-06-27T06:31:25.789Z,76.19
2018-06-27T06:34:30.876Z,76.21
2018-06-27T06:37:36.437Z,76.46
2018-06-27T06:40:42.759Z,76.44
2018-06-27T06:43:47.744Z,75.91
2018-06-27T06:46:53.546Z,76.51
2018-06-27T06:49:59.451Z,76.63
2018-06-27T06:53:05.419Z,76.90
2018-06-27T06:56:11.371Z,76.33
2018-06-27T06:59:16.563Z,76.74
2018-06-27T07:02:22.268Z,75.95
2018-06-27T07:05:28.440Z,76.19
2018-06-27T07:08:34.269Z,76.26
2018-06-27T07:11:40.408Z,75.91
2018-06-27T07:14:46.440Z,76.45
2018-06-27T07:17:51.870Z,75.95
2018-06-27T07:20:58.037Z,76.43
2018-06-27T07:24:04.805Z,75.94
2018-06-27T07:27:10.190Z,76.28
2018-06-27T07:30:15.292Z,76.12
2018-06-27T07:33:20.537Z,76.12
2018-06-27T07:36:25.640Z,76.16
2018-06-27T07:39:31.966Z,76.27
2018-06-27T07:42:37.810Z,76.32
2018-06-27T07:45:43.726Z,75.61
2018-06-27T07:48:49.125Z,76.21
2018-06-27T07:51:55.484Z,75.43
2018-06-27T07:55:01.180Z,75.54
2018-06-27T07:58:07.228Z,76.03
2018-06-27T08:01:12.324Z,75.41
2018-06-27T08:04:17.728Z,75.68
2018-06-27T08:07:23.849Z,75.72
2018-06-27T08:10:29.845Z,75.16
2018-06-27T08:13:34.935Z,74.92
2018-06-27T08:16:40.037Z,75.06
2018-06-27T08:19:46.031Z,75.58
2018-06-27T08:22:51.463Z,75.43
2018-06-27T08:25:56.551Z,75.57
2018-06-27T08:29:01.857Z,75.40
2018-06-27T08:32:07.860Z,74.47
2018-06-27T08:35:12.937Z,74.40
2018-06-27T08:38:18.094Z,74.70
2018-06-27T08:41:24.287Z,75.16
2018-06-27T08:44:30.304Z,74.71
2018-06-27T08:47:36.325Z,74.31
2018-06-27T08:50:42.109Z,74.14
2018-06-27T08:53:47.856Z,73.54
2018-06-27T08:56:53.144Z,73.32
2018-06-27T08:59:58.570Z,73.02
2018-06-27T09:03:04.448Z,72.70
2018-06-27T09:06:09.571Z,73.00
2018-06-27T09:09:15.906Z,73.21
2018-06-27T09:12:21.592Z,72.45
2018-06-27T09:15:26.646Z,72.05
2018-06-27T09:18:31.866Z,70.97
2018-06-27T09:21:37.504Z,72.48
2018-06-27T09:24:42.556Z,72.36
2018-06-27T09:27:47.805Z,72.23
2018-06-27T09:30:53.632Z,71.67
2018-06-27T09:33:58.731Z,70.95
2018-06-27T09:37:04.237Z,70.09
2018-06-27T09:40:09.372Z,70.12
2018-06-27T09:43:14.465Z,70.25
2018-06-27T09:46:19.368Z,70.57
2018-06-27T09:49:24.148Z,70.36
2018-06-27T09:52:29.538Z,70.27
2018-06-27T09:55:34.959Z,69.28
2018-06-27T09:58:40.043Z,69.33
2018-06-27T10:01:46.671Z,67.75
2018-06-27T10:04:52.684Z,68.04
2018-06-27T10:07:58.513Z,66.57
2018-06-27T10:11:04.844Z,65.45
2018-06-27T10:14:10.632Z,65.48
2018-06-27T10:17:16.509Z,65.67
2018-06-27T10:20:21.784Z,66.07
2018-06-27T10:23:27.456Z,65.63
2018-06-27T10:26:32.588Z,66.40
2018-06-27T10:29:38.529Z,65.90
2018-06-27T10:32:43.621Z,66.50
2018-06-27T10:35:48.746Z,65.70
2018-06-27T10:38:55.089Z,64.90
2018-06-27T10:42:00.804Z,65.52
2018-06-27T10:45:06.115Z,65.63
2018-06-27T10:48:11.874Z,64.82
2018-06-27T10:51:17.248Z,64.40
2018-06-27T10:54:23.233Z,65.24
2018-06-27T10:57:29.773Z,65.13
2018-06-27T11:00:34.871Z,65.28
2018-06-27T11:03:40.563Z,64.08
2018-06-27T11:06:46.601Z,61.83
2018-06-27T11:09:52.701Z,62.22
2018-06-27T11:12:58.720Z,64.24
2018-06-27T11:16:03.832Z,63.63
2018-06-27T11:19:09.624Z,64.29
2018-06-27T11:22:15.196Z,63.76
2018-06-27T11:25:21.146Z,63.60
2018-06-27T11:28:27.216Z,62.14
2018-06-27T11:31:33.263Z,62.53
2018-06-27T11:34:38.828Z,60.49
2018-06-27T11:37:43.940Z,61.65
2018-06-27T11:40:49.024Z,61.83
2018-06-27T11:43:54.443Z,60.79
2018-06-27T11:47:00.464Z,60.48
2018-06-27T11:50:05.567Z,60.75
2018-06-27T11:53:10.668Z,60.32
2018-06-27T11:56:15.744Z,60.80
2018-06-27T11:59:21.232Z,61.54
2018-06-27T12:02:26.340Z,60.50
2018-06-27T12:05:31.628Z,60.78
2018-06-27T12:08:36.721Z,60.81
2018-06-27T12:11:42.049Z,61.28
2018-06-27T12:14:47.479Z,59.73
2018-06-27T12:17:53.256Z,61.27
2018-06-27T12:20:59.216Z,60.53
2018-06-27T12:24:05.192Z,61.46
2018-06-27T12:27:10.228Z,61.02
2018-06-27T12:30:23.756Z,60.16
2018-06-27T12:33:29.156Z,58.91
2018-06-27T12:36:34.460Z,60.84
2018-06-27T12:39:41.020Z,58.80
2018-06-27T12:42:46.942Z,59.01
2018-06-27T12:45:52.763Z,59.66
2018-06-27T12:48:58.586Z,59.99
2018-06-27T12:52:03.781Z,59.40
2018-06-27T12:55:11.261Z,60.01
2018-06-27T12:58:17.227Z,58.43
2018-06-27T13:01:23.129Z,59.55
2018-06-27T13:04:28.428Z,59.22
2018-06-27T13:07:33.779Z,58.59
2018-06-27T13:10:38.857Z,59.91
2018-06-27T13:13:43.964Z,58.74
2018-06-27T13:16:48.732Z,58.73
2018-06-27T13:19:54.330Z,57.99
2018-06-27T13:23:00.625Z,58.86
2018-06-27T13:26:06.446Z,58.63
2018-06-27T13:29:11.977Z,57.76
2018-06-27T13:32:18.015Z,58.67
2018-06-27T13:35:24.248Z,58.58
2018-06-27T13:38:30.085Z,58.26
2018-06-27T13:41:35.979Z,58.07
2018-06-27T13:44:41.063Z,58.29
2018-06-27T13:47:46.188Z,58.04
2018-06-27T13:50:51.832Z,58.26
2018-06-27T13:53:58.356Z,57.50
2018-06-27T13:57:03.760Z,58.18
2018-06-27T14:00:08.824Z,58.58
2018-06-27T14:03:15.309Z,57.53
2018-06-27T14:06:20.448Z,58.23
2018-06-27T14:09:25.942Z,57.81
2018-06-27T14:12:32.001Z,57.72
2018-06-27T14:15:37.112Z,57.27
2018-06-27T14:18:43.108Z,58.05
2018-06-27T14:21:49.250Z,58.76
2018-06-27T14:24:54.319Z,58.14
2018-06-27T14:27:59.493Z,58.33
2018-06-27T14:31:04.926Z,58.76
2018-06-27T14:34:10.636Z,57.28
2018-06-27T14:37:16.080Z,57.62
2018-06-27T14:40:21.158Z,58.90
2018-06-27T14:43:26.976Z,56.75
2018-06-27T14:46:32.110Z,57.75
2018-06-27T14:49:38.212Z,58.04
2018-06-27T14:52:45.280Z,57.52
2018-06-27T14:55:50.790Z,58.19
2018-06-27T14:58:56.497Z,57.95
2018-06-27T15:02:02.018Z,58.58
2018-06-27T15:05:06.811Z,57.49
2018-06-27T15:08:12.503Z,58.73
2018-06-27T15:11:19.636Z,58.86
2018-06-27T15:14:25.956Z,58.05
2018-06-27T15:17:31.034Z,58.39
2018-06-27T15:20:36.588Z,58.22
2018-06-27T15:23:43.095Z,57.47
2018-06-27T15:26:49.076Z,57.65
2018-06-27T15:29:55.312Z,56.01
2018-06-27T15:33:02.482Z,56.91
2018-06-27T15:36:07.888Z,57.47
2018-06-27T15:39:12.965Z,55.70
2018-06-27T15:42:17.756Z,56.87
2018-06-27T15:45:24.103Z,56.68
2018-06-27T15:48:29.302Z,56.96
2018-06-27T15:51:35.372Z,56.28
2018-06-27T15:54:41.174Z,55.96
2018-06-27T15:57:48.794Z,55.91
2018-06-27T16:00:54.822Z,57.76
2018-06-27T16:04:00.892Z,55.80
2018-06-27T16:07:07.038Z,57.13
2018-06-27T16:10:12.104Z,57.90
2018-06-27T16:13:17.164Z,57.11
2018-06-27T16:16:22.047Z,56.46
2018-06-27T16:19:27.100Z,53.60
2018-06-27T16:22:32.178Z,55.73
2018-06-27T16:25:38.164Z,58.08
2018-06-27T16:28:43.958Z,56.39
2018-06-27T16:31:49.025Z,58.53
2018-06-27T16:34:54.173Z,58.33
2018-06-27T16:38:00.268Z,58.36
2018-06-27T16:41:06.098Z,57.46
2018-06-27T16:44:12.796Z,57.27
2018-06-27T16:47:18.064Z,56.73
2018-06-27T16:50:22.893Z,57.29
2018-06-27T16:53:28.285Z,57.41
2018-06-27T16:56:34.593Z,56.92
2018-06-27T16:59:39.646Z,57.01
2018-06-27T17:02:45.061Z,56.68
2018-06-27T17:05:50.170Z,57.46
2018-06-27T17:08:55.781Z,56.92
2018-06-27T17:12:00.540Z,55.99
2018-06-27T17:15:13.951Z,56.22
2018-06-27T17:18:21.763Z,57.20
2018-06-27T17:21:26.940Z,57.20
2018-06-27T17:24:33.111Z,56.81
2018-06-27T17:27:38.858Z,56.47
2018-06-27T17:30:45.238Z,56.48
2018-06-27T17:33:50.720Z,56.94
2018-06-27T17:36:55.986Z,56.27
2018-06-27T17:40:00.982Z,55.87
2018-06-27T17:43:06.634Z,57.80
2018-06-27T17:46:12.026Z,57.27
2018-06-27T17:49:17.149Z,57.74
2018-06-27T17:52:21.987Z,58.46
2018-06-27T17:55:28.792Z,57.93
2018-06-27T17:58:34.404Z,58.34
2018-06-27T18:01:40.113Z,59.33
2018-06-27T18:04:46.590Z,59.42
2018-06-27T18:07:52.732Z,58.88
2018-06-27T18:10:57.909Z,59.95
2018-06-27T18:14:04.528Z,58.93
2018-06-27T18:17:09.666Z,57.99
2018-06-27T18:20:17.021Z,59.79
2018-06-27T18:23:22.705Z,60.81
2018-06-27T18:26:27.811Z,58.30
2018-06-27T18:29:33.896Z,59.27
2018-06-27T18:32:39.017Z,60.44
2018-06-27T18:35:45.437Z,60.01
2018-06-27T18:38:52.349Z,60.60
2018-06-27T18:41:59.438Z,60.67
2018-06-27T18:45:05.856Z,61.54
2018-06-27T18:48:11.307Z,60.97
2018-06-27T18:51:17.471Z,61.40
2018-06-27T18:54:23.698Z,60.97
2018-06-27T18:57:28.804Z,61.95
2018-06-27T19:00:34.350Z,62.18
2018-06-27T19:03:39.451Z,61.94
2018-06-27T19:06:44.561Z,61.99
2018-06-27T19:09:50.522Z,61.37
2018-06-27T19:12:56.697Z,60.76
2018-06-27T19:16:03.692Z,62.00
2018-06-27T19:19:09.916Z,61.83
2018-06-27T19:22:15.689Z,61.20
2018-06-27T19:25:20.758Z,61.90
2018-06-27T19:28:26.836Z,62.11
2018-06-27T19:31:31.676Z,61.69
2018-06-27T19:34:37.809Z,61.69
2018-06-27T19:37:43.546Z,62.40
2018-06-27T19:40:49.252Z,62.20
2018-06-27T19:43:54.896Z,62.12
2018-06-27T19:47:01.463Z,62.70
2018-06-27T19:50:06.964Z,62.86
2018-06-27T19:53:12.197Z,62.98
2018-06-27T19:56:17.971Z,63.22
2018-06-27T19:59:23.744Z,63.36
2018-06-27T20:02:29.284Z,62.71
2018-06-27T20:05:35.660Z,63.44
2018-06-27T20:08:41.828Z,63.38
2018-06-27T20:11:47.628Z,64.13
2018-06-27T20:14:52.705Z,64.18
2018-06-27T20:18:19.945Z,63.86
2018-06-27T20:21:36.875Z,64.41
2018-06-27T20:24:41.884Z,64.68
2018-06-27T20:27:47.932Z,64.77
2018-06-27T20:30:53.005Z,64.44
2018-06-27T20:33:58.076Z,64.77
2018-06-27T20:37:03.526Z,64.99
2018-06-27T20:40:10.179Z,64.47
2018-06-27T20:43:15.692Z,65.27
2018-06-27T20:46:22.837Z,65.39
2018-06-27T20:49:28.737Z,65.49
2018-06-27T20:52:34.784Z,65.62
2018-06-27T20:55:41.173Z,65.22
2018-06-27T20:58:46.216Z,65.09
2018-06-27T21:01:51.037Z,65.20
2018-06-27T21:04:56.642Z,66.27
2018-06-27T21:08:01.779Z,65.51
2018-06-27T21:11:07.045Z,66.16
2018-06-27T21:14:12.109Z,66.58
2018-06-27T21:17:20.250Z,65.67
2018-06-27T21:20:26.161Z,66.66
2018-06-27T21:23:31.777Z,66.07
2018-06-27T21:26:36.863Z,66.51
2018-06-27T21:29:42.405Z,66.74
2018-06-27T21:32:48.495Z,66.17
2018-06-27T21:35:54.026Z,66.39
2018-06-27T21:38:59.896Z,66.74
2018-06-27T21:42:06.023Z,67.23
2018-06-27T21:45:11.088Z,67.29
2018-06-27T21:48:16.781Z,66.97
2018-06-27T21:51:22.712Z,67.74
2018-06-27T21:54:28.703Z,66.77
2018-06-27T21:57:33.476Z,66.59
2018-06-27T22:00:39.805Z,67.43
2018-06-27T22:03:44.641Z,66.92
2018-06-27T22:06:50.445Z,67.49
2018-06-27T22:09:55.481Z,66.85
2018-06-27T22:13:01.813Z,67.56
2018-06-27T22:16:07.681Z,68.13
2018-06-27T22:19:13.043Z,67.97
2018-06-27T22:22:19.041Z,67.50
2018-06-27T22:25:26.047Z,67.24
2018-06-27T22:28:31.104Z,67.75
2018-06-27T22:31:37.268Z,67.34
2018-06-27T22:34:43.088Z,67.89
2018-06-27T22:37:48.153Z,67.69
2018-06-27T22:40:53.459Z,68.18
2018-06-27T22:43:58.697Z,68.01
2018-06-27T22:47:05.799Z,68.35
2018-06-27T22:50:11.209Z,67.91
2018-06-27T22:53:16.986Z,68.86
2018-06-27T22:56:22.308Z,68.51
2018-06-27T22:59:28.115Z,68.93
2018-06-27T23:02:33.168Z,68.43
2018-06-27T23:08:43.052Z,68.10
2018-06-27T23:11:48.145Z,68.41
2018-06-27T23:14:53.937Z,68.53
2018-06-27T23:17:59.027Z,69.40
2018-06-27T23:21:04.864Z,69.30
2018-06-27T23:24:10.876Z,69.67
2018-06-27T23:27:16.836Z,68.62
2018-06-27T23:30:23.081Z,68.95
2018-06-27T23:33:29.004Z,68.44
2018-06-27T23:36:34.101Z,69.42
2018-06-27T23:39:40.105Z,69.51
2018-06-27T23:42:45.403Z,68.89
2018-06-27T23:45:50.796Z,69.34
2018-06-27T23:48:56.526Z,69.21
2018-06-27T23:52:01.652Z,70.15
2018-06-27T23:55:06.757Z,69.35
2018-06-27T23:58:12.354Z,69.27
